Time;durP1;ratioP1;P1;durP2;ratioP2;P2;SDS_P1;SDS_P2;PMS_P1;PMS_P2;Temp;Humidity;BMP_temperature;BMP_pressure;BME280_temperature;BME280_humidity;BME280_pressure;Samples;Min_cycle;Max_cycle;Signal;HPM_P1;HPM_P2
2023/08/28 00:01:27;;;;;;;2.42;1.58;;;13.80;99.20;;;;;;4910431;28;88904;-85
2023/08/28 00:03:55;;;;;;;2.75;1.42;;;13.80;99.30;;;;;;4913968;28;87323;-85
2023/08/28 00:14:23;;;;;;;1.60;1.13;;;13.60;99.40;;;;;;4961709;23;88505;-84
2023/08/28 00:17:00;;;;;;;3.53;1.77;;;13.60;99.50;;;;;;4913699;28;87974;-88
2023/08/28 00:19:26;;;;;;;6.43;1.30;;;13.60;99.50;;;;;;4932381;28;87252;-83
2023/08/28 00:21:54;;;;;;;2.55;1.65;;;13.60;99.70;;;;;;4900865;28;90301;-85
2023/08/28 00:24:19;;;;;;;2.08;1.30;;;13.50;99.60;;;;;;4930015;28;88781;-85
2023/08/28 07:09:47;;;;;;;22.27;8.63;;;14.70;99.90;;;;;;2490878;23;88746;-78
2023/08/28 07:12:13;;;;;;;23.50;8.00;;;14.90;99.90;;;;;;4854735;28;90253;-77
2023/08/28 07:14:39;;;;;;;19.85;6.88;;;15.20;99.90;;;;;;4853181;28;89732;-77
2023/08/28 07:17:04;;;;;;;17.40;5.95;;;15.20;99.90;;;;;;4842703;29;88081;-77
2023/08/28 07:19:30;;;;;;;21.13;7.82;;;15.10;99.90;;;;;;4862537;28;87958;-77
2023/08/28 07:21:59;;;;;;;20.95;6.93;;;15.10;99.90;;;;;;4858892;28;91052;-77
2023/08/28 07:24:25;;;;;;;22.30;6.68;;;15.00;99.90;;;;;;4878879;28;88120;-77
2023/08/28 07:26:51;;;;;;;22.95;7.68;;;15.00;99.90;;;;;;4881233;28;88137;-77
2023/08/28 07:29:17;;;;;;;16.80;6.82;;;15.00;99.90;;;;;;4878369;28;87458;-77
2023/08/28 07:31:43;;;;;;;16.67;6.55;;;15.00;99.90;;;;;;4879798;28;88347;-77
2023/08/28 07:34:08;;;;;;;21.42;6.90;;;15.10;99.90;;;;;;4869821;28;90998;-77
2023/08/28 07:36:37;;;;;;;22.23;6.78;;;15.20;99.90;;;;;;4879470;28;88693;-77
2023/08/28 07:39:03;;;;;;;20.27;7.38;;;15.20;99.90;;;;;;4861453;28;90206;-77
2023/08/28 07:41:28;;;;;;;17.98;7.20;;;15.30;99.90;;;;;;4878109;28;88901;-77
2023/08/28 07:43:54;;;;;;;21.58;8.13;;;15.40;99.90;;;;;;4878790;28;88624;-77
2023/08/28 07:46:20;;;;;;;14.73;6.75;;;15.40;99.90;;;;;;4879950;28;87577;-77
2023/08/28 07:48:45;;;;;;;16.30;6.85;;;15.60;99.90;;;;;;4876805;28;89965;-77
2023/08/28 07:51:11;;;;;;;17.23;7.32;;;15.60;99.90;;;;;;4860922;28;89030;-77
2023/08/28 07:53:38;;;;;;;19.85;7.50;;;15.70;99.90;;;;;;4881547;28;88484;-77
2023/08/28 07:56:03;;;;;;;19.65;7.97;;;15.80;99.90;;;;;;4879500;28;87565;-77
2023/08/28 07:58:29;;;;;;;17.10;6.60;;;15.80;99.90;;;;;;4879866;28;87405;-77
2023/08/28 08:00:56;;;;;;;12.82;6.43;;;15.90;99.90;;;;;;4879893;28;89788;-77
2023/08/28 08:03:22;;;;;;;12.38;6.43;;;16.00;99.90;;;;;;4878947;28;92387;-77
2023/08/28 08:05:47;;;;;;;16.50;7.30;;;16.10;99.90;;;;;;4882480;28;87746;-77
2023/08/28 08:08:13;;;;;;;17.20;7.38;;;16.20;99.90;;;;;;4864574;28;89943;-77
2023/08/28 08:10:39;;;;;;;14.00;5.90;;;16.30;99.90;;;;;;4882251;28;88606;-77
2023/08/28 08:13:05;;;;;;;12.73;5.88;;;16.40;99.90;;;;;;4865180;28;92126;-77
2023/08/28 08:15:31;;;;;;;16.60;6.75;;;16.50;99.90;;;;;;4882691;28;89351;-77
2023/08/28 08:17:57;;;;;;;13.65;5.95;;;16.70;99.90;;;;;;4883236;28;86912;-77
2023/08/28 08:20:23;;;;;;;17.92;7.00;;;16.80;99.40;;;;;;4882137;28;88445;-76
2023/08/28 08:22:49;;;;;;;16.90;6.45;;;16.90;99.20;;;;;;4882671;28;88149;-76
2023/08/28 08:25:15;;;;;;;10.98;5.47;;;17.00;99.30;;;;;;4883287;28;89460;-76
2023/08/28 08:27:44;;;;;;;16.33;6.68;;;17.00;99.00;;;;;;4884557;28;87388;-76
2023/08/28 08:30:13;;;;;;;18.60;6.55;;;17.10;98.70;;;;;;4882519;28;87944;-76
2023/08/28 08:32:39;;;;;;;12.25;6.63;;;17.20;98.60;;;;;;4872425;28;91293;-77
2023/08/28 08:35:05;;;;;;;13.88;6.50;;;17.30;98.40;;;;;;4863255;28;87553;-76
2023/08/28 08:37:32;;;;;;;13.30;6.75;;;17.40;98.50;;;;;;4881536;28;87690;-76
2023/08/28 08:39:57;;;;;;;17.92;6.88;;;17.40;98.40;;;;;;4881030;28;88926;-76
2023/08/28 08:42:23;;;;;;;14.48;6.93;;;17.60;98.70;;;;;;4880632;28;89277;-75
2023/08/28 08:44:49;;;;;;;16.95;7.50;;;17.70;98.30;;;;;;4880596;28;87921;-76
2023/08/28 08:47:16;;;;;;;11.60;6.72;;;17.80;97.90;;;;;;4880878;28;87669;-77
2023/08/28 08:49:42;;;;;;;15.93;6.97;;;17.90;97.30;;;;;;4877851;28;92730;-76
2023/08/28 08:52:09;;;;;;;13.02;6.05;;;18.00;97.50;;;;;;4863626;28;92551;-77
2023/08/28 08:54:41;;;;;;;13.45;6.38;;;18.20;97.40;;;;;;4882218;28;87711;-77
2023/08/28 08:57:26;;;;;;;12.38;7.03;;;18.30;96.90;;;;;;4880521;28;87856;-76
2023/08/28 08:59:52;;;;;;;11.05;6.47;;;18.40;95.90;;;;;;4880983;28;88244;-77
2023/08/28 09:02:19;;;;;;;12.13;6.20;;;18.50;96.60;;;;;;4880461;28;88178;-76
2023/08/28 09:04:45;;;;;;;14.82;6.35;;;18.60;96.10;;;;;;4880155;28;87751;-76
2023/08/28 09:07:11;;;;;;;11.65;6.28;;;18.80;96.30;;;;;;4871588;28;89620;-77
2023/08/28 09:09:38;;;;;;;10.95;5.05;;;18.80;95.50;;;;;;4878402;28;90930;-76
2023/08/28 09:12:04;;;;;;;12.02;5.82;;;18.80;95.50;;;;;;4880636;28;87548;-76
2023/08/28 09:14:31;;;;;;;12.38;6.70;;;18.90;95.50;;;;;;4878215;28;88719;-76
2023/08/28 09:16:57;;;;;;;9.95;6.10;;;19.00;94.30;;;;;;4879997;28;87782;-76
2023/08/28 09:19:23;;;;;;;10.50;5.82;;;19.00;94.60;;;;;;4880070;28;87836;-76
2023/08/28 09:21:49;;;;;;;11.30;6.50;;;19.00;94.90;;;;;;4881567;28;88304;-77
2023/08/28 09:24:21;;;;;;;10.88;5.30;;;19.00;94.30;;;;;;4860681;28;87554;-76
2023/08/28 09:26:53;;;;;;;9.20;5.20;;;19.10;94.80;;;;;;4862607;28;90758;-77
2023/08/28 09:29:23;;;;;;;10.75;6.13;;;19.20;95.70;;;;;;4879158;28;88430;-77
2023/08/28 09:31:51;;;;;;;13.02;6.05;;;19.40;95.00;;;;;;4880852;28;88536;-77
2023/08/28 09:34:18;;;;;;;11.57;5.85;;;19.60;94.40;;;;;;4879150;28;88024;-77
2023/08/28 09:36:44;;;;;;;15.23;5.93;;;19.70;93.90;;;;;;4880101;28;87785;-77
2023/08/28 09:39:11;;;;;;;22.83;6.25;;;19.80;93.90;;;;;;4878921;28;89158;-77
2023/08/28 09:41:48;;;;;;;12.27;6.28;;;19.90;94.10;;;;;;4879956;28;89691;-77
2023/08/28 09:44:21;;;;;;;10.77;6.13;;;19.90;92.70;;;;;;4860547;28;87528;-77
2023/08/28 09:46:48;;;;;;;9.07;5.45;;;19.80;93.60;;;;;;4859429;28;89328;-78
2023/08/28 09:49:14;;;;;;;11.70;5.95;;;19.90;93.40;;;;;;4879498;28;88561;-77
2023/08/28 09:51:44;;;;;;;7.75;5.28;;;19.90;93.30;;;;;;4863036;28;90640;-77
2023/08/28 09:54:13;;;;;;;7.70;5.43;;;20.00;93.60;;;;;;4879428;28;87792;-77
2023/08/28 09:56:40;;;;;;;9.70;5.40;;;20.10;93.70;;;;;;4879639;28;87429;-77
2023/08/28 09:59:09;;;;;;;9.40;5.18;;;20.30;93.00;;;;;;4879313;28;88197;-77
2023/08/28 10:01:36;;;;;;;7.82;5.88;;;20.30;92.20;;;;;;4879627;28;87556;-77
2023/08/28 10:04:07;;;;;;;10.98;5.38;;;20.40;92.10;;;;;;4880456;28;88408;-77
2023/08/28 10:06:40;;;;;;;10.57;5.18;;;20.40;92.20;;;;;;4861613;28;90825;-77
2023/08/28 10:09:15;;;;;;;6.18;4.75;;;20.40;92.10;;;;;;4860953;28;90913;-77
2023/08/28 10:11:43;;;;;;;11.43;4.72;;;20.50;92.60;;;;;;4879416;28;88178;-77
2023/08/28 10:14:10;;;;;;;8.80;4.15;;;20.70;92.70;;;;;;4876133;28;87909;-76
2023/08/28 10:16:54;;;;;;;8.55;4.38;;;20.80;92.30;;;;;;4878675;28;88118;-77
2023/08/28 10:19:33;;;;;;;7.53;3.25;;;21.00;91.80;;;;;;4878907;28;88438;-76
2023/08/28 10:22:02;;;;;;;5.18;2.95;;;21.10;92.10;;;;;;4875446;28;91684;-76
2023/08/28 10:24:30;;;;;;;6.80;3.30;;;21.20;92.00;;;;;;4878806;28;87746;-76
2023/08/28 10:26:57;;;;;;;6.38;3.53;;;21.50;91.20;;;;;;4870536;28;93194;-76
2023/08/28 10:29:24;;;;;;;5.70;3.90;;;21.70;89.60;;;;;;4878233;28;89672;-76
2023/08/28 10:31:53;;;;;;;8.15;4.00;;;21.60;89.60;;;;;;4879191;28;87745;-76
2023/08/28 10:34:20;;;;;;;5.65;2.22;;;21.60;90.40;;;;;;4878900;28;87892;-76
2023/08/28 10:36:47;;;;;;;4.40;2.25;;;21.70;90.30;;;;;;4879403;28;87736;-75
2023/08/28 10:39:13;;;;;;;5.40;2.58;;;21.80;90.10;;;;;;4866821;28;87801;-76
2023/08/28 10:41:40;;;;;;;3.15;1.20;;;22.00;90.50;;;;;;4861193;28;90136;-76
2023/08/28 10:44:07;;;;;;;1.92;0.70;;;22.10;87.30;;;;;;4878661;28;88022;-77
2023/08/28 10:46:33;;;;;;;5.75;1.10;;;22.30;86.90;;;;;;4879156;28;87031;-76
2023/08/28 10:49:03;;;;;;;3.55;1.42;;;22.50;87.80;;;;;;4878655;28;87941;-77
2023/08/28 10:51:33;;;;;;;2.83;1.15;;;22.50;83.80;;;;;;4875337;28;90798;-77
2023/08/28 10:54:01;;;;;;;5.43;1.50;;;22.30;85.60;;;;;;4878153;28;88863;-77
2023/08/28 10:56:31;;;;;;;5.32;0.75;;;22.30;87.40;;;;;;4878305;28;88027;-76
2023/08/28 10:59:19;;;;;;;4.88;0.73;;;22.30;86.90;;;;;;4877799;28;89948;-76
2023/08/28 11:01:52;;;;;;;2.47;0.70;;;22.30;84.20;;;;;;4876246;28;91221;-76
2023/08/28 11:04:18;;;;;;;2.55;0.70;;;22.20;83.40;;;;;;4859087;28;88527;-76
2023/08/28 11:06:45;;;;;;;4.57;0.80;;;22.30;85.10;;;;;;4880122;28;87957;-76
2023/08/28 11:09:29;;;;;;;3.58;0.73;;;22.20;84.00;;;;;;4870912;28;95393;-76
2023/08/28 11:11:57;;;;;;;3.85;0.50;;;22.20;83.20;;;;;;4879248;28;87526;-76
2023/08/28 11:14:32;;;;;;;2.80;0.65;;;22.10;83.40;;;;;;4878420;28;87729;-75
2023/08/28 11:17:11;;;;;;;2.72;0.80;;;22.20;83.80;;;;;;4877222;28;87829;-75
2023/08/28 11:19:55;;;;;;;3.10;0.63;;;22.30;85.20;;;;;;4877583;28;90220;-75
2023/08/28 11:22:35;;;;;;;2.35;0.60;;;22.40;83.90;;;;;;4873235;28;89334;-75
2023/08/28 11:25:04;;;;;;;2.60;0.70;;;22.50;83.20;;;;;;4878039;28;87579;-76
2023/08/28 11:27:33;;;;;;;6.65;0.85;;;22.50;81.20;;;;;;4878538;28;87893;-76
2023/08/28 11:30:04;;;;;;;4.70;0.88;;;22.40;81.60;;;;;;4878199;28;89329;-76
2023/08/28 11:32:31;;;;;;;3.08;0.80;;;22.40;82.50;;;;;;4878849;28;89388;-76
2023/08/28 11:35:01;;;;;;;3.53;0.88;;;22.40;83.40;;;;;;4858939;28;88109;-76
2023/08/28 11:37:34;;;;;;;2.53;0.70;;;22.40;83.50;;;;;;4876602;28;87494;-75
2023/08/28 11:40:01;;;;;;;3.38;0.88;;;22.50;81.50;;;;;;4878631;28;88396;-75
2023/08/28 11:42:30;;;;;;;2.97;0.85;;;22.50;82.10;;;;;;4877314;28;88333;-75
2023/08/28 11:44:55;;;;;;;1.70;0.63;;;22.50;81.10;;;;;;4877486;28;88522;-76
2023/08/28 11:47:25;;;;;;;2.90;0.93;;;22.60;80.20;;;;;;4876885;28;87518;-76
2023/08/28 11:49:52;;;;;;;2.78;0.60;;;22.60;81.10;;;;;;4876696;28;88812;-75
2023/08/28 11:52:18;;;;;;;1.23;0.70;;;22.70;81.30;;;;;;4876643;28;87974;-76
2023/08/28 11:54:43;;;;;;;2.85;0.80;;;22.90;80.90;;;;;;4878141;28;87521;-76
2023/08/28 11:57:09;;;;;;;1.35;0.60;;;22.90;80.10;;;;;;4877979;28;87808;-76
2023/08/28 11:59:36;;;;;;;5.03;1.10;;;22.90;79.10;;;;;;4875063;28;90393;-76
2023/08/28 12:02:03;;;;;;;2.55;0.82;;;22.80;81.10;;;;;;4877862;28;94207;-76
2023/08/28 12:04:36;;;;;;;2.58;0.50;;;22.80;79.40;;;;;;4877402;28;87898;-76
2023/08/28 12:07:29;;;;;;;2.05;0.70;;;22.70;79.50;;;;;;4878149;28;87918;-77
2023/08/28 12:09:55;;;;;;;1.40;0.60;;;22.50;80.70;;;;;;4856833;28;95341;-77
2023/08/28 12:12:22;;;;;;;4.47;0.60;;;22.40;82.50;;;;;;4875900;28;88876;-77
2023/08/28 12:14:49;;;;;;;2.72;0.75;;;22.40;83.90;;;;;;4877855;28;88015;-77
2023/08/28 12:17:23;;;;;;;3.63;0.60;;;22.30;84.60;;;;;;4876661;28;87670;-77
2023/08/28 12:19:50;;;;;;;1.20;0.50;;;22.20;85.30;;;;;;4878275;28;87539;-77
2023/08/28 12:22:20;;;;;;;3.00;0.88;;;22.20;86.40;;;;;;4874156;28;91692;-77
2023/08/28 12:24:47;;;;;;;2.63;1.08;;;22.20;86.80;;;;;;4869316;28;87846;-77
2023/08/28 12:27:15;;;;;;;4.80;1.00;;;22.20;87.70;;;;;;4859030;28;90207;-77
2023/08/28 12:29:42;;;;;;;7.93;1.10;;;22.20;88.10;;;;;;4875161;28;88318;-77
2023/08/28 12:32:15;;;;;;;1.08;0.70;;;22.30;87.30;;;;;;4877186;28;89043;-77
2023/08/28 12:34:42;;;;;;;2.95;0.77;;;22.40;87.20;;;;;;4876524;28;88815;-77
2023/08/28 12:37:09;;;;;;;3.58;0.90;;;22.40;86.90;;;;;;4877171;28;87624;-77
2023/08/28 12:39:35;;;;;;;2.00;0.98;;;22.40;86.50;;;;;;4876469;28;88841;-77
2023/08/28 12:42:03;;;;;;;1.80;1.00;;;22.40;85.20;;;;;;4877513;28;88271;-77
2023/08/28 12:44:30;;;;;;;2.97;1.02;;;22.40;86.40;;;;;;4877285;28;87787;-77
2023/08/28 12:46:56;;;;;;;3.15;0.90;;;22.40;87.10;;;;;;4858068;28;89531;-77
2023/08/28 12:49:22;;;;;;;0.93;0.80;;;22.40;86.40;;;;;;4880849;28;88519;-77
2023/08/28 12:51:49;;;;;;;3.72;1.05;;;22.30;87.20;;;;;;4880869;28;88170;-77
2023/08/28 12:54:21;;;;;;;4.07;1.08;;;22.30;87.40;;;;;;4880825;28;88024;-77
2023/08/28 12:56:51;;;;;;;4.05;1.02;;;22.30;87.40;;;;;;4880640;28;87612;-77
2023/08/28 12:59:18;;;;;;;1.45;0.93;;;22.30;86.00;;;;;;4878223;28;91296;-77
2023/08/28 13:01:44;;;;;;;2.78;1.13;;;22.20;85.10;;;;;;4880322;28;88892;-77
2023/08/28 13:04:10;;;;;;;2.20;0.70;;;22.10;84.00;;;;;;4881390;28;87510;-77
2023/08/28 13:06:35;;;;;;;2.00;1.20;;;22.10;85.10;;;;;;4880005;28;88107;-77
2023/08/28 13:09:03;;;;;;;2.58;1.30;;;22.00;87.00;;;;;;4879657;28;88356;-77
2023/08/28 13:11:29;;;;;;;2.47;1.05;;;22.10;86.00;;;;;;4878024;28;87884;-76
2023/08/28 13:13:55;;;;;;;2.35;1.10;;;22.10;89.20;;;;;;4879949;28;87872;-77
2023/08/28 13:16:21;;;;;;;1.75;1.13;;;22.20;89.10;;;;;;4880061;28;88380;-77
2023/08/28 13:18:47;;;;;;;2.58;1.55;;;22.20;89.70;;;;;;4881930;28;88110;-77
2023/08/28 13:21:12;;;;;;;3.95;1.17;;;22.20;89.00;;;;;;4881785;28;88613;-77
2023/08/28 13:23:38;;;;;;;3.80;1.50;;;22.20;87.20;;;;;;4882167;28;88203;-77
2023/08/28 13:26:04;;;;;;;3.95;1.50;;;22.20;87.70;;;;;;4880412;28;87583;-77
2023/08/28 13:28:30;;;;;;;2.75;1.40;;;22.20;87.20;;;;;;4861789;28;92237;-77
2023/08/28 13:30:55;;;;;;;3.10;1.50;;;22.10;86.10;;;;;;4880422;28;88786;-77
2023/08/28 13:33:21;;;;;;;5.05;1.48;;;22.10;84.50;;;;;;4880391;28;87917;-77
2023/08/28 13:35:48;;;;;;;3.72;1.45;;;22.10;83.70;;;;;;4879883;28;87838;-77
2023/08/28 13:38:15;;;;;;;2.25;1.10;;;22.20;84.90;;;;;;4861606;28;91682;-77
2023/08/28 13:40:41;;;;;;;4.55;1.30;;;22.30;83.10;;;;;;4879587;28;89508;-76
2023/08/28 13:43:06;;;;;;;1.48;0.70;;;22.30;84.10;;;;;;4879996;28;88275;-77
2023/08/28 13:45:33;;;;;;;1.80;0.80;;;22.40;86.50;;;;;;4879858;28;88019;-77
2023/08/28 13:47:59;;;;;;;2.42;0.75;;;22.60;84.80;;;;;;4878798;28;89124;-76
2023/08/28 13:50:25;;;;;;;2.85;0.90;;;22.70;83.30;;;;;;4879580;28;89123;-77
2023/08/28 13:52:50;;;;;;;3.60;1.00;;;22.90;82.80;;;;;;4879400;28;87794;-77
2023/08/28 13:55:16;;;;;;;2.20;1.15;;;23.00;85.40;;;;;;4880012;28;87660;-76
2023/08/28 13:57:42;;;;;;;4.30;1.90;;;23.10;80.10;;;;;;4881056;28;87493;-77
2023/08/28 14:00:14;;;;;;;4.30;0.90;;;23.00;78.30;;;;;;4878685;28;88062;-77
2023/08/28 14:02:41;;;;;;;2.05;1.13;;;22.90;79.50;;;;;;4879496;28;87710;-76
2023/08/28 14:05:14;;;;;;;3.40;1.33;;;22.90;79.20;;;;;;4880326;28;87725;-77
2023/08/28 14:07:40;;;;;;;4.07;1.48;;;22.80;78.00;;;;;;4879636;28;88857;-77
2023/08/28 14:10:07;;;;;;;4.65;1.55;;;22.70;78.20;;;;;;4876244;28;90215;-77
2023/08/28 14:12:32;;;;;;;6.18;1.45;;;22.70;77.40;;;;;;4878373;28;88915;-77
2023/08/28 14:15:00;;;;;;;3.50;1.75;;;22.60;78.70;;;;;;4878916;28;87314;-76
2023/08/28 14:17:26;;;;;;;6.63;1.48;;;22.70;77.90;;;;;;4878823;28;87938;-76
2023/08/28 14:19:52;;;;;;;3.63;1.63;;;22.70;78.50;;;;;;4878446;28;87601;-76
2023/08/28 14:22:18;;;;;;;4.90;1.75;;;22.80;77.30;;;;;;4879158;28;87758;-76
2023/08/28 14:24:43;;;;;;;7.10;1.45;;;22.70;76.90;;;;;;4879080;28;87334;-76
2023/08/28 14:27:09;;;;;;;2.60;1.38;;;22.70;81.30;;;;;;4879552;28;89112;-77
2023/08/28 14:29:35;;;;;;;3.40;1.70;;;22.80;77.90;;;;;;4878978;28;87881;-77
2023/08/28 14:32:01;;;;;;;4.78;1.50;;;22.90;76.80;;;;;;4878809;28;87940;-77
2023/08/28 14:34:26;;;;;;;4.22;1.67;;;22.80;76.90;;;;;;4877962;28;87755;-76
2023/08/28 14:36:52;;;;;;;4.38;1.60;;;22.80;81.00;;;;;;4879039;28;88596;-76
2023/08/28 14:39:18;;;;;;;4.57;2.20;;;22.90;79.10;;;;;;4878839;28;88990;-77
2023/08/28 14:41:43;;;;;;;4.93;2.20;;;23.00;78.90;;;;;;4879417;28;87947;-77
2023/08/28 14:44:09;;;;;;;4.38;1.83;;;23.00;79.20;;;;;;4878064;28;87983;-76
2023/08/28 14:46:35;;;;;;;4.45;2.17;;;23.10;81.40;;;;;;4877416;28;88335;-77
2023/08/28 14:49:03;;;;;;;5.30;2.88;;;23.20;81.70;;;;;;4878382;28;88337;-77
2023/08/28 14:51:29;;;;;;;5.28;4.25;;;23.40;82.90;;;;;;4878690;28;87681;-81
2023/08/28 14:53:57;;;;;;;6.05;3.97;;;23.50;80.00;;;;;;4880642;28;87131;-80
2023/08/28 14:56:24;;;;;;;4.55;3.00;;;23.50;81.40;;;;;;4877491;28;91543;-84
2023/08/28 14:58:50;;;;;;;5.40;3.10;;;23.50;80.40;;;;;;4879880;28;88856;-81
2023/08/28 15:01:16;;;;;;;7.68;5.13;;;23.60;82.10;;;;;;4879461;28;88645;-80
2023/08/28 15:04:03;;;;;;;8.38;4.40;;;23.80;80.90;;;;;;4862493;28;88451;-79
2023/08/28 15:09:36;;;;;;;5.90;2.53;;;24.00;77.90;;;;;;4855754;28;89363;-80
2023/08/28 15:12:04;;;;;;;5.22;1.95;;;24.10;74.00;;;;;;4876213;28;87828;-80
2023/08/28 15:14:33;;;;;;;3.80;2.00;;;24.00;75.00;;;;;;4861679;28;90944;-85
2023/08/28 15:17:19;;;;;;;6.88;2.20;;;24.00;74.90;;;;;;4867127;28;90647;-84
2023/08/28 15:19:45;;;;;;;4.00;1.88;;;23.90;72.40;;;;;;4853430;28;89463;-80
2023/08/28 15:22:10;;;;;;;4.07;1.80;;;23.70;73.40;;;;;;4879868;28;87797;-80
2023/08/28 15:24:37;;;;;;;3.22;1.50;;;23.70;72.80;;;;;;4876075;28;88873;-80
2023/08/28 15:27:04;;;;;;;7.28;1.55;;;23.70;72.70;;;;;;4858824;28;92443;-83
2023/08/28 15:29:30;;;;;;;3.63;1.30;;;23.70;73.60;;;;;;4859263;28;92546;-80
2023/08/28 15:31:56;;;;;;;5.53;1.30;;;23.80;73.40;;;;;;4858510;28;88060;-80
2023/08/28 15:34:24;;;;;;;3.80;1.45;;;23.90;74.20;;;;;;4877075;28;87584;-80
2023/08/28 15:36:51;;;;;;;2.92;1.30;;;24.00;75.20;;;;;;4862604;28;91645;-81
2023/08/28 15:39:17;;;;;;;1.48;0.82;;;24.10;73.10;;;;;;4877993;28;95507;-81
2023/08/28 15:41:44;;;;;;;5.82;1.10;;;24.20;77.20;;;;;;4878159;28;87727;-80
2023/08/28 15:44:10;;;;;;;1.42;0.82;;;24.30;75.80;;;;;;4861096;28;90666;-83
2023/08/28 15:46:35;;;;;;;4.53;1.63;;;24.40;75.20;;;;;;4860519;28;91781;-81
2023/08/28 15:49:01;;;;;;;2.15;1.00;;;24.40;71.20;;;;;;4856563;28;90265;-82
2023/08/28 15:51:27;;;;;;;2.17;1.15;;;24.30;69.50;;;;;;4850721;28;88623;-80
2023/08/28 15:53:53;;;;;;;2.90;0.70;;;24.20;69.40;;;;;;4856366;28;90067;-79
2023/08/28 15:56:19;;;;;;;1.88;1.05;;;24.20;71.00;;;;;;4861195;28;90978;-80
2023/08/28 15:58:44;;;;;;;4.15;1.13;;;24.20;70.00;;;;;;4878981;28;88124;-81
2023/08/28 16:01:10;;;;;;;2.53;1.00;;;24.10;71.50;;;;;;4878060;28;87781;-80
2023/08/28 16:04:29;;;;;;;2.58;0.80;;;24.20;71.90;;;;;;4875397;28;90613;-81
2023/08/28 16:06:55;;;;;;;2.72;1.30;;;24.00;70.90;;;;;;4877990;28;96580;-82
2023/08/28 16:09:21;;;;;;;3.53;0.93;;;23.90;68.50;;;;;;4860803;28;90071;-83
2023/08/28 16:11:56;;;;;;;2.22;0.70;;;23.70;69.80;;;;;;4864798;28;87795;-83
2023/08/28 16:14:31;;;;;;;3.67;0.93;;;23.60;70.10;;;;;;4864364;28;89588;-81
2023/08/28 16:17:03;;;;;;;2.00;0.63;;;23.50;70.60;;;;;;4847540;28;96418;-80
2023/08/28 16:19:28;;;;;;;3.40;1.23;;;23.40;71.60;;;;;;4862053;28;92231;-80
2023/08/28 16:21:54;;;;;;;2.30;0.90;;;23.30;71.10;;;;;;4862040;28;87999;-79
2023/08/28 16:24:22;;;;;;;2.13;1.13;;;23.30;72.10;;;;;;4863559;28;90364;-79
2023/08/28 16:26:50;;;;;;;3.15;1.23;;;23.20;71.60;;;;;;4863954;28;91524;-81
2023/08/28 16:29:16;;;;;;;5.03;1.48;;;23.20;72.10;;;;;;4881359;28;88275;-79
2023/08/28 16:31:41;;;;;;;2.25;1.23;;;23.20;72.00;;;;;;4861072;28;91649;-80
2023/08/28 16:34:07;;;;;;;4.05;1.33;;;23.20;73.00;;;;;;4864327;28;89142;-79
2023/08/28 16:36:33;;;;;;;4.90;1.20;;;23.30;72.30;;;;;;4881403;28;89116;-78
2023/08/28 16:39:01;;;;;;;3.40;1.30;;;23.30;71.70;;;;;;4881970;28;87649;-78
2023/08/28 16:41:26;;;;;;;2.90;1.52;;;23.30;71.50;;;;;;4869452;28;88559;-76
2023/08/28 16:43:52;;;;;;;5.82;1.83;;;23.10;72.10;;;;;;4881415;28;88058;-76
2023/08/28 16:46:18;;;;;;;2.78;1.10;;;23.10;72.20;;;;;;4881433;28;88472;-76
2023/08/28 16:48:44;;;;;;;4.43;1.17;;;22.90;73.40;;;;;;4881735;28;88724;-77
2023/08/28 16:51:10;;;;;;;2.78;1.27;;;22.80;73.40;;;;;;4863118;28;87790;-77
2023/08/28 16:53:37;;;;;;;5.68;1.70;;;22.70;73.40;;;;;;4863108;28;90274;-77
2023/08/28 16:56:03;;;;;;;7.70;2.00;;;22.50;74.60;;;;;;4881212;28;87815;-76
2023/08/28 16:58:29;;;;;;;3.58;1.20;;;22.40;75.40;;;;;;4880796;28;88493;-77
2023/08/28 17:00:58;;;;;;;4.53;1.52;;;22.40;75.40;;;;;;4882113;28;87087;-76
2023/08/28 17:03:25;;;;;;;1.88;1.20;;;22.20;75.40;;;;;;4881296;28;87851;-76
2023/08/28 17:05:56;;;;;;;5.43;1.52;;;22.10;76.40;;;;;;4879275;28;89333;-77
2023/08/28 17:08:22;;;;;;;6.10;1.92;;;22.00;77.00;;;;;;4880570;28;89331;-76
2023/08/28 17:10:47;;;;;;;4.63;2.53;;;21.80;78.00;;;;;;4879590;28;87714;-77
2023/08/28 17:13:13;;;;;;;4.30;1.58;;;21.70;79.00;;;;;;4880837;28;87187;-76
2023/08/28 17:16:04;;;;;;;3.90;1.40;;;21.60;79.20;;;;;;4872547;28;91612;-78
2023/08/28 17:18:31;;;;;;;7.32;1.60;;;21.50;79.20;;;;;;4876202;28;88396;-77
2023/08/28 17:20:58;;;;;;;4.97;1.08;;;21.50;79.40;;;;;;4883647;28;87553;-78
2023/08/28 17:23:31;;;;;;;3.75;1.33;;;21.40;79.50;;;;;;4857773;28;90242;-79
2023/08/28 17:26:09;;;;;;;3.33;1.00;;;21.30;80.50;;;;;;4884602;28;92136;-77
2023/08/28 17:28:35;;;;;;;1.92;0.90;;;21.30;79.70;;;;;;4868219;28;89175;-78
2023/08/28 17:31:10;;;;;;;5.38;1.30;;;21.20;82.10;;;;;;4869726;28;88354;-78
2023/08/28 17:33:36;;;;;;;2.22;0.90;;;21.10;82.10;;;;;;4880011;28;87845;-78
2023/08/28 17:36:24;;;;;;;1.85;0.75;;;21.00;81.80;;;;;;4851342;28;91794;-78
2023/08/28 17:39:09;;;;;;;3.13;0.82;;;20.90;82.40;;;;;;4861621;28;91206;-77
2023/08/28 17:41:35;;;;;;;2.85;0.82;;;20.90;82.70;;;;;;4881059;28;87735;-77
2023/08/28 17:44:00;;;;;;;4.00;1.02;;;20.60;83.90;;;;;;4863007;28;89951;-78
2023/08/28 17:46:26;;;;;;;1.80;0.90;;;20.60;84.50;;;;;;4867312;28;89076;-77
2023/08/28 17:48:54;;;;;;;2.90;1.02;;;20.50;85.00;;;;;;4872907;28;88955;-77
2023/08/28 17:51:37;;;;;;;5.32;0.93;;;20.40;85.30;;;;;;4881595;28;87851;-77
2023/08/28 17:54:24;;;;;;;4.05;1.00;;;20.20;86.30;;;;;;4876721;28;87706;-77
2023/08/28 17:57:02;;;;;;;3.50;1.05;;;20.20;86.70;;;;;;4860496;28;92727;-77
2023/08/28 17:59:28;;;;;;;3.20;1.20;;;20.10;86.90;;;;;;4879548;28;91518;-76
2023/08/28 18:01:53;;;;;;;1.75;0.90;;;20.00;87.60;;;;;;4865092;28;87624;-77
2023/08/28 18:04:19;;;;;;;3.60;1.08;;;19.90;88.40;;;;;;4870683;28;88085;-77
2023/08/28 18:06:46;;;;;;;2.03;0.90;;;19.90;88.90;;;;;;4862092;28;91717;-77
2023/08/28 18:09:12;;;;;;;4.30;1.23;;;19.80;89.40;;;;;;4879214;28;89236;-77
2023/08/28 18:11:40;;;;;;;2.05;1.02;;;19.70;89.80;;;;;;4860136;28;88061;-77
2023/08/28 18:14:06;;;;;;;2.25;1.27;;;19.70;90.00;;;;;;4879397;28;86928;-76
2023/08/28 18:16:34;;;;;;;1.75;1.00;;;19.70;90.10;;;;;;4879536;28;88205;-78
2023/08/28 18:19:00;;;;;;;4.10;1.02;;;19.60;90.20;;;;;;4861016;28;91442;-77
2023/08/28 18:21:26;;;;;;;2.17;1.30;;;19.50;90.40;;;;;;4878388;28;89035;-78
2023/08/28 18:23:51;;;;;;;2.80;1.25;;;19.50;90.50;;;;;;4879147;28;87580;-77
2023/08/28 18:26:21;;;;;;;3.10;1.30;;;19.50;90.90;;;;;;4879272;28;87718;-78
2023/08/28 18:28:46;;;;;;;1.83;1.15;;;19.50;90.70;;;;;;4858167;28;90594;-77
2023/08/28 18:31:12;;;;;;;0.90;0.90;;;19.50;91.10;;;;;;4879550;28;87781;-77
2023/08/28 18:33:38;;;;;;;1.55;1.00;;;19.40;90.80;;;;;;4878842;28;87370;-77
2023/08/28 18:36:04;;;;;;;4.65;1.45;;;19.40;91.00;;;;;;4859328;28;92221;-77
2023/08/28 18:38:30;;;;;;;2.38;1.40;;;19.30;91.10;;;;;;4878825;28;88558;-77
2023/08/28 18:40:56;;;;;;;3.72;1.40;;;19.30;91.10;;;;;;4879175;28;87735;-77
2023/08/28 18:43:22;;;;;;;3.03;1.45;;;19.30;91.30;;;;;;4880905;28;87769;-76
2023/08/28 18:45:48;;;;;;;1.90;1.25;;;19.20;91.70;;;;;;4875469;28;92671;-76
2023/08/28 18:48:16;;;;;;;4.43;1.65;;;19.10;91.60;;;;;;4877978;28;89829;-76
2023/08/28 18:50:45;;;;;;;2.67;1.67;;;19.00;91.80;;;;;;4859404;28;87548;-77
2023/08/28 18:53:11;;;;;;;2.80;1.60;;;18.80;92.00;;;;;;4878604;28;88069;-77
2023/08/28 18:55:38;;;;;;;2.58;1.40;;;18.70;92.10;;;;;;4878442;28;88258;-77
2023/08/28 18:58:04;;;;;;;2.58;1.65;;;18.60;92.20;;;;;;4878665;28;88418;-76
2023/08/28 19:00:31;;;;;;;3.67;2.08;;;18.50;92.30;;;;;;4878590;28;87594;-76
2023/08/28 19:02:57;;;;;;;3.30;2.10;;;18.50;92.50;;;;;;4877858;28;88042;-77
2023/08/28 19:05:23;;;;;;;2.55;1.40;;;18.40;92.70;;;;;;4878693;28;88553;-76
2023/08/28 19:07:49;;;;;;;3.05;2.05;;;18.30;92.70;;;;;;4878250;28;89105;-76
2023/08/28 19:10:17;;;;;;;3.50;1.90;;;18.20;92.90;;;;;;4878479;28;89064;-76
2023/08/28 19:12:46;;;;;;;2.00;1.80;;;18.10;93.20;;;;;;4861210;28;89017;-76
2023/08/28 19:15:12;;;;;;;4.88;1.80;;;18.10;93.20;;;;;;4867926;28;88135;-76
2023/08/28 19:17:39;;;;;;;2.50;2.28;;;18.10;93.30;;;;;;4878063;28;88725;-76
2023/08/28 19:20:05;;;;;;;3.50;2.10;;;18.00;93.50;;;;;;4879148;28;87577;-76
2023/08/28 19:22:31;;;;;;;3.10;1.95;;;18.00;93.70;;;;;;4877395;28;87894;-76
2023/08/28 19:25:03;;;;;;;4.10;2.05;;;17.90;93.90;;;;;;4878782;28;89254;-76
2023/08/28 19:27:29;;;;;;;2.85;1.80;;;17.90;94.10;;;;;;4878630;28;88358;-76
2023/08/28 19:29:56;;;;;;;1.73;1.58;;;17.90;94.20;;;;;;4877056;28;87651;-76
2023/08/28 19:32:34;;;;;;;2.22;1.80;;;17.80;94.10;;;;;;4877982;28;88071;-76
2023/08/28 19:35:07;;;;;;;5.35;1.80;;;17.80;94.30;;;;;;4877214;28;88918;-76
2023/08/28 19:37:33;;;;;;;2.38;2.17;;;17.80;94.50;;;;;;4877128;28;89055;-76
2023/08/28 19:39:59;;;;;;;2.30;2.03;;;17.70;94.70;;;;;;4879359;28;87397;-76
2023/08/28 19:42:25;;;;;;;3.63;2.08;;;17.70;94.90;;;;;;4877818;28;87917;-76
2023/08/28 19:44:52;;;;;;;4.38;2.30;;;17.60;95.10;;;;;;4877382;28;88756;-76